sensor_id;sensor_type;location;lat;lon;timestamp;temperature;humidity
68274;SHT30;55104;47.356;19.448;2022-11-04T00:00:34;10.25;95.58
68274;SHT30;55104;47.356;19.448;2022-11-04T00:03:36;10.25;95.52
68274;SHT30;55104;47.356;19.448;2022-11-04T00:06:38;10.29;95.59
68274;SHT30;55104;47.356;19.448;2022-11-04T00:09:40;10.25;95.58
68274;SHT30;55104;47.356;19.448;2022-11-04T00:12:42;10.29;95.50
68274;SHT30;55104;47.356;19.448;2022-11-04T00:15:45;10.31;95.46
68274;SHT30;55104;47.356;19.448;2022-11-04T00:19:05;10.36;95.32
68274;SHT30;55104;47.356;19.448;2022-11-04T00:22:07;10.31;95.54
68274;SHT30;55104;47.356;19.448;2022-11-04T00:25:28;10.36;95.64
68274;SHT30;55104;47.356;19.448;2022-11-04T00:28:49;10.31;95.77
68274;SHT30;55104;47.356;19.448;2022-11-04T00:31:53;10.32;95.96
68274;SHT30;55104;47.356;19.448;2022-11-04T00:35:14;10.32;96.02
68274;SHT30;55104;47.356;19.448;2022-11-04T00:38:17;10.32;96.14
68274;SHT30;55104;47.356;19.448;2022-11-04T00:41:19;10.28;96.35
68274;SHT30;55104;47.356;19.448;2022-11-04T00:44:29;10.36;96.31
68274;SHT30;55104;47.356;19.448;2022-11-04T00:47:31;10.23;96.45
68274;SHT30;55104;47.356;19.448;2022-11-04T00:50:33;10.23;96.58
68274;SHT30;55104;47.356;19.448;2022-11-04T00:53:36;10.28;96.71
68274;SHT30;55104;47.356;19.448;2022-11-04T00:56:39;10.19;96.51
68274;SHT30;55104;47.356;19.448;2022-11-04T00:59:41;10.15;96.80
68274;SHT30;55104;47.356;19.448;2022-11-04T01:02:43;10.08;97.34
68274;SHT30;55104;47.356;19.448;2022-11-04T01:05:46;10.06;97.48
68274;SHT30;55104;47.356;19.448;2022-11-04T01:08:48;10.06;97.66
68274;SHT30;55104;47.356;19.448;2022-11-04T01:11:55;10.04;97.72
68274;SHT30;55104;47.356;19.448;2022-11-04T01:14:57;9.99;97.82
68274;SHT30;55104;47.356;19.448;2022-11-04T01:18:00;9.90;98.18
68274;SHT30;55104;47.356;19.448;2022-11-04T01:21:05;9.93;98.25
68274;SHT30;55104;47.356;19.448;2022-11-04T01:24:08;9.97;98.01
68274;SHT30;55104;47.356;19.448;2022-11-04T01:27:10;9.90;98.10
68274;SHT30;55104;47.356;19.448;2022-11-04T01:30:12;9.87;98.28
68274;SHT30;55104;47.356;19.448;2022-11-04T01:33:15;9.88;98.22
68274;SHT30;55104;47.356;19.448;2022-11-04T01:36:17;9.90;98.12
68274;SHT30;55104;47.356;19.448;2022-11-04T01:39:19;9.87;98.10
68274;SHT30;55104;47.356;19.448;2022-11-04T01:42:21;9.87;98.33
68274;SHT30;55104;47.356;19.448;2022-11-04T01:45:23;9.84;98.52
68274;SHT30;55104;47.356;19.448;2022-11-04T01:48:31;9.73;98.86
68274;SHT30;55104;47.356;19.448;2022-11-04T01:51:35;9.83;98.73
68274;SHT30;55104;47.356;19.448;2022-11-04T01:54:40;9.83;98.63
68274;SHT30;55104;47.356;19.448;2022-11-04T01:57:46;9.80;98.89
68274;SHT30;55104;47.356;19.448;2022-11-04T02:00:49;9.84;98.84
68274;SHT30;55104;47.356;19.448;2022-11-04T02:03:57;9.83;98.70
68274;SHT30;55104;47.356;19.448;2022-11-04T02:07:23;9.83;98.80
68274;SHT30;55104;47.356;19.448;2022-11-04T02:10:27;9.87;98.82
68274;SHT30;55104;47.356;19.448;2022-11-04T02:13:32;9.88;98.69
68274;SHT30;55104;47.356;19.448;2022-11-04T02:16:45;9.93;98.81
68274;SHT30;55104;47.356;19.448;2022-11-04T02:20:00;9.90;98.98
68274;SHT30;55104;47.356;19.448;2022-11-04T02:30:15;9.91;99.02
68274;SHT30;55104;47.356;19.448;2022-11-04T02:36:52;9.97;98.43
68274;SHT30;55104;47.356;19.448;2022-11-04T02:43:30;9.83;97.92
68274;SHT30;55104;47.356;19.448;2022-11-04T02:46:59;9.73;97.97
68274;SHT30;55104;47.356;19.448;2022-11-04T02:50:10;9.74;97.91
68274;SHT30;55104;47.356;19.448;2022-11-04T02:53:40;9.74;97.90
68274;SHT30;55104;47.356;19.448;2022-11-04T02:56:47;9.74;97.79
68274;SHT30;55104;47.356;19.448;2022-11-04T03:00:15;9.67;97.90
68274;SHT30;55104;47.356;19.448;2022-11-04T03:03:21;9.70;97.59
68274;SHT30;55104;47.356;19.448;2022-11-04T03:06:26;9.57;97.88
68274;SHT30;55104;47.356;19.448;2022-11-04T03:09:29;9.51;98.18
68274;SHT30;55104;47.356;19.448;2022-11-04T03:12:37;9.42;98.12
68274;SHT30;55104;47.356;19.448;2022-11-04T03:16:09;9.44;98.34
68274;SHT30;55104;47.356;19.448;2022-11-04T03:19:31;9.44;98.27
68274;SHT30;55104;47.356;19.448;2022-11-04T03:22:36;9.38;98.62
68274;SHT30;55104;47.356;19.448;2022-11-04T03:25:46;9.25;98.96
68274;SHT30;55104;47.356;19.448;2022-11-04T03:35:19;9.22;98.98
68274;SHT30;55104;47.356;19.448;2022-11-04T03:38:22;9.21;98.96
68274;SHT30;55104;47.356;19.448;2022-11-04T03:41:45;9.19;99.18
68274;SHT30;55104;47.356;19.448;2022-11-04T03:44:50;9.25;99.04
68274;SHT30;55104;47.356;19.448;2022-11-04T03:47:55;9.29;98.86
68274;SHT30;55104;47.356;19.448;2022-11-04T03:50:58;9.23;98.73
68274;SHT30;55104;47.356;19.448;2022-11-04T03:54:00;9.19;98.95
68274;SHT30;55104;47.356;19.448;2022-11-04T03:57:18;9.18;98.95
68274;SHT30;55104;47.356;19.448;2022-11-04T04:00:28;9.12;99.00
68274;SHT30;55104;47.356;19.448;2022-11-04T04:03:40;9.12;98.89
68274;SHT30;55104;47.356;19.448;2022-11-04T04:06:44;9.07;98.90
68274;SHT30;55104;47.356;19.448;2022-11-04T04:09:54;8.92;98.97
68274;SHT30;55104;47.356;19.448;2022-11-04T04:13:01;8.89;99.30
68274;SHT30;55104;47.356;19.448;2022-11-04T04:16:36;8.91;99.43
68274;SHT30;55104;47.356;19.448;2022-11-04T04:19:44;8.89;99.50
68274;SHT30;55104;47.356;19.448;2022-11-04T04:22:56;8.88;99.52
68274;SHT30;55104;47.356;19.448;2022-11-04T04:26:03;8.84;99.46
68274;SHT30;55104;47.356;19.448;2022-11-04T04:29:26;8.85;99.39
68274;SHT30;55104;47.356;19.448;2022-11-04T04:32:35;8.88;99.15
68274;SHT30;55104;47.356;19.448;2022-11-04T04:35:43;8.83;99.22
68274;SHT30;55104;47.356;19.448;2022-11-04T04:38:45;8.89;99.23
68274;SHT30;55104;47.356;19.448;2022-11-04T04:42:06;8.84;99.18
68274;SHT30;55104;47.356;19.448;2022-11-04T04:45:34;8.77;99.18
68274;SHT30;55104;47.356;19.448;2022-11-04T04:48:37;8.78;99.22
68274;SHT30;55104;47.356;19.448;2022-11-04T04:51:45;8.80;99.05
68274;SHT30;55104;47.356;19.448;2022-11-04T04:54:48;8.77;99.05
68274;SHT30;55104;47.356;19.448;2022-11-04T04:57:50;8.80;99.04
68274;SHT30;55104;47.356;19.448;2022-11-04T05:00:51;8.77;98.85
68274;SHT30;55104;47.356;19.448;2022-11-04T05:03:54;8.74;99.03
68274;SHT30;55104;47.356;19.448;2022-11-04T05:06:55;8.74;98.94
68274;SHT30;55104;47.356;19.448;2022-11-04T05:09:57;8.77;98.85
68274;SHT30;55104;47.356;19.448;2022-11-04T05:12:59;8.73;98.91
68274;SHT30;55104;47.356;19.448;2022-11-04T05:16:20;8.74;98.71
68274;SHT30;55104;47.356;19.448;2022-11-04T05:19:22;8.78;98.46
68274;SHT30;55104;47.356;19.448;2022-11-04T05:22:24;8.74;98.34
68274;SHT30;55104;47.356;19.448;2022-11-04T05:25:26;8.77;98.34
68274;SHT30;55104;47.356;19.448;2022-11-04T05:28:28;8.81;98.28
68274;SHT30;55104;47.356;19.448;2022-11-04T05:31:30;8.77;98.06
68274;SHT30;55104;47.356;19.448;2022-11-04T05:34:32;8.63;97.90
68274;SHT30;55104;47.356;19.448;2022-11-04T05:37:34;8.66;97.69
68274;SHT30;55104;47.356;19.448;2022-11-04T05:40:36;8.57;97.65
68274;SHT30;55104;47.356;19.448;2022-11-04T05:43:38;8.61;97.68
68274;SHT30;55104;47.356;19.448;2022-11-04T05:46:40;8.61;97.60
68274;SHT30;55104;47.356;19.448;2022-11-04T05:49:43;8.67;97.60
68274;SHT30;55104;47.356;19.448;2022-11-04T05:52:45;8.71;97.41
68274;SHT30;55104;47.356;19.448;2022-11-04T05:55:47;8.61;97.57
68274;SHT30;55104;47.356;19.448;2022-11-04T05:58:49;8.64;97.34
68274;SHT30;55104;47.356;19.448;2022-11-04T06:01:51;8.64;97.35
68274;SHT30;55104;47.356;19.448;2022-11-04T06:04:53;8.66;97.21
68274;SHT30;55104;47.356;19.448;2022-11-04T06:07:55;8.64;97.13
68274;SHT30;55104;47.356;19.448;2022-11-04T06:10:57;8.63;96.95
68274;SHT30;55104;47.356;19.448;2022-11-04T06:13:59;8.59;97.30
68274;SHT30;55104;47.356;19.448;2022-11-04T06:17:01;8.66;97.09
68274;SHT30;55104;47.356;19.448;2022-11-04T06:20:04;8.68;96.98
68274;SHT30;55104;47.356;19.448;2022-11-04T06:23:07;8.68;96.97
68274;SHT30;55104;47.356;19.448;2022-11-04T06:26:10;8.70;96.91
68274;SHT30;55104;47.356;19.448;2022-11-04T06:29:12;8.78;96.62
68274;SHT30;55104;47.356;19.448;2022-11-04T06:32:16;8.88;96.49
68274;SHT30;55104;47.356;19.448;2022-11-04T06:35:19;8.91;96.27
68274;SHT30;55104;47.356;19.448;2022-11-04T06:38:20;9.01;96.07
68274;SHT30;55104;47.356;19.448;2022-11-04T06:41:22;8.89;95.96
68274;SHT30;55104;47.356;19.448;2022-11-04T06:44:25;8.91;95.83
68274;SHT30;55104;47.356;19.448;2022-11-04T06:47:27;8.97;95.74
68274;SHT30;55104;47.356;19.448;2022-11-04T06:50:29;8.89;95.88
68274;SHT30;55104;47.356;19.448;2022-11-04T06:53:31;8.91;95.82
68274;SHT30;55104;47.356;19.448;2022-11-04T06:56:33;8.95;95.48
68274;SHT30;55104;47.356;19.448;2022-11-04T06:59:35;9.00;95.22
68274;SHT30;55104;47.356;19.448;2022-11-04T07:02:37;9.05;95.07
68274;SHT30;55104;47.356;19.448;2022-11-04T07:05:40;9.02;95.44
68274;SHT30;55104;47.356;19.448;2022-11-04T07:08:43;9.02;95.18
68274;SHT30;55104;47.356;19.448;2022-11-04T07:11:46;9.04;95.31
68274;SHT30;55104;47.356;19.448;2022-11-04T07:14:48;9.00;95.10
68274;SHT30;55104;47.356;19.448;2022-11-04T07:17:50;9.00;95.10
68274;SHT30;55104;47.356;19.448;2022-11-04T07:20:52;9.02;94.76
68274;SHT30;55104;47.356;19.448;2022-11-04T07:23:54;9.01;94.49
68274;SHT30;55104;47.356;19.448;2022-11-04T07:26:56;8.98;94.37
68274;SHT30;55104;47.356;19.448;2022-11-04T07:29:58;9.11;94.28
68274;SHT30;55104;47.356;19.448;2022-11-04T07:33:00;9.30;93.89
68274;SHT30;55104;47.356;19.448;2022-11-04T07:36:03;9.40;93.35
68274;SHT30;55104;47.356;19.448;2022-11-04T07:39:06;9.32;93.26
68274;SHT30;55104;47.356;19.448;2022-11-04T07:42:08;9.46;93.15
68274;SHT30;55104;47.356;19.448;2022-11-04T07:45:10;9.56;92.73
68274;SHT30;55104;47.356;19.448;2022-11-04T07:48:12;9.44;92.96
68274;SHT30;55104;47.356;19.448;2022-11-04T07:51:16;9.44;93.06
68274;SHT30;55104;47.356;19.448;2022-11-04T07:54:18;9.44;93.15
68274;SHT30;55104;47.356;19.448;2022-11-04T07:57:20;9.53;92.95
68274;SHT30;55104;47.356;19.448;2022-11-04T08:00:23;9.58;92.72
68274;SHT30;55104;47.356;19.448;2022-11-04T08:03:25;9.71;92.35
68274;SHT30;55104;47.356;19.448;2022-11-04T08:06:29;9.63;92.32
68274;SHT30;55104;47.356;19.448;2022-11-04T08:09:31;9.71;92.37
68274;SHT30;55104;47.356;19.448;2022-11-04T08:12:33;9.69;92.32
68274;SHT30;55104;47.356;19.448;2022-11-04T08:15:35;9.74;92.20
68274;SHT30;55104;47.356;19.448;2022-11-04T08:18:38;9.71;92.08
68274;SHT30;55104;47.356;19.448;2022-11-04T08:21:40;9.70;92.20
68274;SHT30;55104;47.356;19.448;2022-11-04T08:24:42;9.74;92.18
68274;SHT30;55104;47.356;19.448;2022-11-04T08:27:44;9.76;92.03
68274;SHT30;55104;47.356;19.448;2022-11-04T08:31:16;9.73;91.70
68274;SHT30;55104;47.356;19.448;2022-11-04T08:34:16;9.54;92.19
68274;SHT30;55104;47.356;19.448;2022-11-04T08:37:19;9.50;91.92
68274;SHT30;55104;47.356;19.448;2022-11-04T08:40:21;9.42;92.06
68274;SHT30;55104;47.356;19.448;2022-11-04T08:43:23;9.54;92.59
68274;SHT30;55104;47.356;19.448;2022-11-04T08:46:27;9.66;91.98
68274;SHT30;55104;47.356;19.448;2022-11-04T08:49:30;9.70;91.67
68274;SHT30;55104;47.356;19.448;2022-11-04T08:52:32;9.83;91.67
68274;SHT30;55104;47.356;19.448;2022-11-04T08:55:34;9.93;90.96
68274;SHT30;55104;47.356;19.448;2022-11-04T08:58:36;9.95;90.85
68274;SHT30;55104;47.356;19.448;2022-11-04T09:01:38;10.09;90.84
68274;SHT30;55104;47.356;19.448;2022-11-04T09:04:40;10.04;90.66
68274;SHT30;55104;47.356;19.448;2022-11-04T09:07:42;10.09;90.44
68274;SHT30;55104;47.356;19.448;2022-11-04T09:10:46;10.02;90.54
68274;SHT30;55104;47.356;19.448;2022-11-04T09:13:48;10.09;90.43
68274;SHT30;55104;47.356;19.448;2022-11-04T09:16:50;10.18;90.26
68274;SHT30;55104;47.356;19.448;2022-11-04T09:19:52;10.25;90.06
68274;SHT30;55104;47.356;19.448;2022-11-04T09:22:55;10.36;89.88
68274;SHT30;55104;47.356;19.448;2022-11-04T09:25:57;10.38;89.73
68274;SHT30;55104;47.356;19.448;2022-11-04T09:29:04;10.42;89.91
68274;SHT30;55104;47.356;19.448;2022-11-04T09:32:08;10.64;89.16
68274;SHT30;55104;47.356;19.448;2022-11-04T09:35:10;10.68;89.22
68274;SHT30;55104;47.356;19.448;2022-11-04T09:38:12;10.73;88.59
68274;SHT30;55104;47.356;19.448;2022-11-04T09:44:26;10.77;88.42
68274;SHT30;55104;47.356;19.448;2022-11-04T09:47:31;10.84;88.22
68274;SHT30;55104;47.356;19.448;2022-11-04T09:50:43;11.14;87.94
68274;SHT30;55104;47.356;19.448;2022-11-04T09:53:54;11.32;87.47
68274;SHT30;55104;47.356;19.448;2022-11-04T09:57:00;11.52;87.50
68274;SHT30;55104;47.356;19.448;2022-11-04T10:00:04;11.59;86.58
68274;SHT30;55104;47.356;19.448;2022-11-04T10:10:14;11.15;86.73
68274;SHT30;55104;47.356;19.448;2022-11-04T10:20:13;11.28;87.14
68274;SHT30;55104;47.356;19.448;2022-11-04T10:26:50;11.25;87.96
68274;SHT30;55104;47.356;19.448;2022-11-04T10:30:05;11.28;88.09
68274;SHT30;55104;47.356;19.448;2022-11-04T10:33:32;11.12;88.49
68274;SHT30;55104;47.356;19.448;2022-11-04T10:36:35;11.11;89.44
68274;SHT30;55104;47.356;19.448;2022-11-04T10:39:42;11.07;89.17
68274;SHT30;55104;47.356;19.448;2022-11-04T10:42:45;11.00;89.79
68274;SHT30;55104;47.356;19.448;2022-11-04T10:46:04;11.03;89.81
68274;SHT30;55104;47.356;19.448;2022-11-04T10:52:33;11.29;89.90
68274;SHT30;55104;47.356;19.448;2022-11-04T10:58:54;11.55;88.91
68274;SHT30;55104;47.356;19.448;2022-11-04T11:02:01;11.71;88.15
68274;SHT30;55104;47.356;19.448;2022-11-04T11:08:30;12.07;86.77
68274;SHT30;55104;47.356;19.448;2022-11-04T11:11:48;12.22;85.83
68274;SHT30;55104;47.356;19.448;2022-11-04T11:14:50;12.25;85.05
68274;SHT30;55104;47.356;19.448;2022-11-04T11:17:58;12.29;85.35
68274;SHT30;55104;47.356;19.448;2022-11-04T11:21:15;12.25;85.35
68274;SHT30;55104;47.356;19.448;2022-11-04T11:24:26;12.24;85.33
68274;SHT30;55104;47.356;19.448;2022-11-04T11:27:28;12.53;85.49
68274;SHT30;55104;47.356;19.448;2022-11-04T11:30:33;12.69;84.27
68274;SHT30;55104;47.356;19.448;2022-11-04T11:33:55;12.76;84.10
68274;SHT30;55104;47.356;19.448;2022-11-04T11:36:59;12.53;83.75
68274;SHT30;55104;47.356;19.448;2022-11-04T11:40:24;12.55;84.21
68274;SHT30;55104;47.356;19.448;2022-11-04T11:43:28;12.60;84.77
68274;SHT30;55104;47.356;19.448;2022-11-04T11:46:34;12.48;84.88
68274;SHT30;55104;47.356;19.448;2022-11-04T11:49:37;12.35;85.57
68274;SHT30;55104;47.356;19.448;2022-11-04T11:52:40;12.33;85.08
68274;SHT30;55104;47.356;19.448;2022-11-04T11:55:47;12.41;85.33
68274;SHT30;55104;47.356;19.448;2022-11-04T11:58:59;12.45;85.28
68274;SHT30;55104;47.356;19.448;2022-11-04T12:02:44;12.52;85.51
68274;SHT30;55104;47.356;19.448;2022-11-04T12:06:07;12.52;85.33
68274;SHT30;55104;47.356;19.448;2022-11-04T12:13:00;12.61;85.14
68274;SHT30;55104;47.356;19.448;2022-11-04T12:35:49;13.18;83.70
68274;SHT30;55104;47.356;19.448;2022-11-04T12:46:48;13.19;83.42
68274;SHT30;55104;47.356;19.448;2022-11-04T13:00:21;13.25;83.52
68274;SHT30;55104;47.356;19.448;2022-11-04T13:03:46;13.24;83.31
68274;SHT30;55104;47.356;19.448;2022-11-04T13:09:55;13.10;84.15
68274;SHT30;55104;47.356;19.448;2022-11-04T13:13:00;13.16;83.76
68274;SHT30;55104;47.356;19.448;2022-11-04T13:16:09;13.07;83.93
68274;SHT30;55104;47.356;19.448;2022-11-04T13:19:23;13.05;83.80
68274;SHT30;55104;47.356;19.448;2022-11-04T13:22:30;13.05;84.21
68274;SHT30;55104;47.356;19.448;2022-11-04T13:25:36;13.04;84.29
68274;SHT30;55104;47.356;19.448;2022-11-04T13:28:41;13.00;84.25
68274;SHT30;55104;47.356;19.448;2022-11-04T13:35:01;12.87;84.50
68274;SHT30;55104;47.356;19.448;2022-11-04T13:38:11;12.88;84.62
68274;SHT30;55104;47.356;19.448;2022-11-04T13:44:38;12.86;84.95
68274;SHT30;55104;47.356;19.448;2022-11-04T13:47:56;12.88;84.78
68274;SHT30;55104;47.356;19.448;2022-11-04T13:51:03;12.88;84.97
68274;SHT30;55104;47.356;19.448;2022-11-04T13:54:22;12.84;85.13
68274;SHT30;55104;47.356;19.448;2022-11-04T13:57:27;12.91;84.81
68274;SHT30;55104;47.356;19.448;2022-11-04T14:00:31;12.84;85.20
68274;SHT30;55104;47.356;19.448;2022-11-04T14:03:39;12.84;85.28
68274;SHT30;55104;47.356;19.448;2022-11-04T14:09:55;12.77;85.75
68274;SHT30;55104;47.356;19.448;2022-11-04T14:19:57;12.72;86.27
68274;SHT30;55104;47.356;19.448;2022-11-04T14:23:01;12.70;86.14
68274;SHT30;55104;47.356;19.448;2022-11-04T14:26:06;12.75;86.19
68274;SHT30;55104;47.356;19.448;2022-11-04T14:29:22;12.73;86.27
68274;SHT30;55104;47.356;19.448;2022-11-04T14:32:36;12.70;86.35
68274;SHT30;55104;47.356;19.448;2022-11-04T14:35:40;12.73;86.16
68274;SHT30;55104;47.356;19.448;2022-11-04T14:38:42;12.73;86.32
68274;SHT30;55104;47.356;19.448;2022-11-04T14:41:56;12.73;86.44
68274;SHT30;55104;47.356;19.448;2022-11-04T14:44:59;12.76;86.47
68274;SHT30;55104;47.356;19.448;2022-11-04T14:48:20;12.69;86.58
68274;SHT30;55104;47.356;19.448;2022-11-04T14:51:32;12.70;86.67
68274;SHT30;55104;47.356;19.448;2022-11-04T14:54:40;12.73;86.73
68274;SHT30;55104;47.356;19.448;2022-11-04T14:57:53;12.73;86.72
68274;SHT30;55104;47.356;19.448;2022-11-04T15:01:00;12.73;86.83
68274;SHT30;55104;47.356;19.448;2022-11-04T15:04:19;12.66;87.20
68274;SHT30;55104;47.356;19.448;2022-11-04T15:10:33;12.67;87.26
68274;SHT30;55104;47.356;19.448;2022-11-04T15:13:37;12.63;87.39
68274;SHT30;55104;47.356;19.448;2022-11-04T15:16:45;12.56;87.84
68274;SHT30;55104;47.356;19.448;2022-11-04T15:19:53;12.55;87.98
68274;SHT30;55104;47.356;19.448;2022-11-04T15:22:57;12.53;88.11
68274;SHT30;55104;47.356;19.448;2022-11-04T15:26:01;12.55;88.14
68274;SHT30;55104;47.356;19.448;2022-11-04T15:29:09;12.50;88.32
68274;SHT30;55104;47.356;19.448;2022-11-04T15:32:15;12.43;88.63
68274;SHT30;55104;47.356;19.448;2022-11-04T15:35:18;12.43;88.69
68274;SHT30;55104;47.356;19.448;2022-11-04T15:38:21;12.46;88.80
68274;SHT30;55104;47.356;19.448;2022-11-04T15:41:26;12.42;89.38
68274;SHT30;55104;47.356;19.448;2022-11-04T15:44:50;12.39;89.49
68274;SHT30;55104;47.356;19.448;2022-11-04T15:48:25;12.35;89.64
68274;SHT30;55104;47.356;19.448;2022-11-04T15:51:29;12.39;89.70
68274;SHT30;55104;47.356;19.448;2022-11-04T15:54:36;12.35;89.81
68274;SHT30;55104;47.356;19.448;2022-11-04T15:57:39;12.33;89.94
68274;SHT30;55104;47.356;19.448;2022-11-04T16:00:50;12.35;89.82
68274;SHT30;55104;47.356;19.448;2022-11-04T16:03:56;12.36;90.12
68274;SHT30;55104;47.356;19.448;2022-11-04T16:07:06;12.35;90.14
68274;SHT30;55104;47.356;19.448;2022-11-04T16:10:32;12.36;90.28
68274;SHT30;55104;47.356;19.448;2022-11-04T16:13:34;12.33;90.42
68274;SHT30;55104;47.356;19.448;2022-11-04T16:16:37;12.33;90.47
68274;SHT30;55104;47.356;19.448;2022-11-04T16:19:39;12.29;90.90
68274;SHT30;55104;47.356;19.448;2022-11-04T16:22:42;12.26;90.92
68274;SHT30;55104;47.356;19.448;2022-11-04T16:25:45;12.31;90.96
68274;SHT30;55104;47.356;19.448;2022-11-04T16:28:52;12.22;91.50
68274;SHT30;55104;47.356;19.448;2022-11-04T16:35:22;12.25;92.06
68274;SHT30;55104;47.356;19.448;2022-11-04T16:38:25;12.22;92.37
68274;SHT30;55104;47.356;19.448;2022-11-04T16:41:29;12.24;92.54
68274;SHT30;55104;47.356;19.448;2022-11-04T16:44:33;12.17;92.75
68274;SHT30;55104;47.356;19.448;2022-11-04T16:47:38;12.17;92.55
68274;SHT30;55104;47.356;19.448;2022-11-04T16:50:41;12.15;92.68
68274;SHT30;55104;47.356;19.448;2022-11-04T16:53:48;12.14;92.87
68274;SHT30;55104;47.356;19.448;2022-11-04T16:56:50;12.13;92.81
68274;SHT30;55104;47.356;19.448;2022-11-04T16:59:53;12.17;92.85
68274;SHT30;55104;47.356;19.448;2022-11-04T17:03:07;12.14;92.84
68274;SHT30;55104;47.356;19.448;2022-11-04T17:06:14;12.11;92.82
68274;SHT30;55104;47.356;19.448;2022-11-04T17:09:21;12.11;93.17
68274;SHT30;55104;47.356;19.448;2022-11-04T17:12:24;12.08;93.45
68274;SHT30;55104;47.356;19.448;2022-11-04T17:15:26;11.98;93.75
68274;SHT30;55104;47.356;19.448;2022-11-04T17:18:32;11.98;93.76
68274;SHT30;55104;47.356;19.448;2022-11-04T17:21:35;11.97;94.04
68274;SHT30;55104;47.356;19.448;2022-11-04T17:24:37;11.95;94.27
68274;SHT30;55104;47.356;19.448;2022-11-04T17:27:39;11.95;94.37
68274;SHT30;55104;47.356;19.448;2022-11-04T17:30:44;11.98;94.11
68274;SHT30;55104;47.356;19.448;2022-11-04T17:33:46;11.98;94.18
68274;SHT30;55104;47.356;19.448;2022-11-04T17:36:49;12.04;93.77
68274;SHT30;55104;47.356;19.448;2022-11-04T17:39:51;12.01;94.09
68274;SHT30;55104;47.356;19.448;2022-11-04T17:42:53;12.02;93.95
68274;SHT30;55104;47.356;19.448;2022-11-04T17:46:15;12.04;93.74
68274;SHT30;55104;47.356;19.448;2022-11-04T17:49:36;12.04;93.91
68274;SHT30;55104;47.356;19.448;2022-11-04T17:52:40;12.07;93.90
68274;SHT30;55104;47.356;19.448;2022-11-04T17:55:43;12.15;93.55
68274;SHT30;55104;47.356;19.448;2022-11-04T17:58:47;12.05;93.66
68274;SHT30;55104;47.356;19.448;2022-11-04T18:01:49;12.10;93.74
68274;SHT30;55104;47.356;19.448;2022-11-04T18:04:52;12.14;93.36
68274;SHT30;55104;47.356;19.448;2022-11-04T18:07:57;12.14;93.28
68274;SHT30;55104;47.356;19.448;2022-11-04T18:11:02;12.13;93.42
68274;SHT30;55104;47.356;19.448;2022-11-04T18:14:04;12.04;93.94
68274;SHT30;55104;47.356;19.448;2022-11-04T18:17:07;12.02;93.89
68274;SHT30;55104;47.356;19.448;2022-11-04T18:20:12;12.01;93.35
68274;SHT30;55104;47.356;19.448;2022-11-04T18:23:16;11.99;93.64
68274;SHT30;55104;47.356;19.448;2022-11-04T18:26:18;11.98;93.68
68274;SHT30;55104;47.356;19.448;2022-11-04T18:29:21;11.98;93.61
68274;SHT30;55104;47.356;19.448;2022-11-04T18:32:23;11.97;93.64
68274;SHT30;55104;47.356;19.448;2022-11-04T18:35:26;11.95;93.71
68274;SHT30;55104;47.356;19.448;2022-11-04T18:38:28;11.98;93.73
68274;SHT30;55104;47.356;19.448;2022-11-04T18:41:32;11.98;93.66
68274;SHT30;55104;47.356;19.448;2022-11-04T18:44:34;11.97;93.86
68274;SHT30;55104;47.356;19.448;2022-11-04T18:47:37;11.97;93.54
68274;SHT30;55104;47.356;19.448;2022-11-04T18:50:39;11.99;93.67
68274;SHT30;55104;47.356;19.448;2022-11-04T18:53:41;12.04;93.62
68274;SHT30;55104;47.356;19.448;2022-11-04T18:56:44;11.98;93.84
68274;SHT30;55104;47.356;19.448;2022-11-04T18:59:46;11.93;93.80
68274;SHT30;55104;47.356;19.448;2022-11-04T19:02:49;11.97;93.95
68274;SHT30;55104;47.356;19.448;2022-11-04T19:05:51;11.94;94.16
68274;SHT30;55104;47.356;19.448;2022-11-04T19:08:58;11.91;94.05
68274;SHT30;55104;47.356;19.448;2022-11-04T19:12:10;11.88;94.15
68274;SHT30;55104;47.356;19.448;2022-11-04T19:15:32;11.91;94.12
68274;SHT30;55104;47.356;19.448;2022-11-04T19:18:35;11.94;93.77
68274;SHT30;55104;47.356;19.448;2022-11-04T19:21:38;11.98;93.61
68274;SHT30;55104;47.356;19.448;2022-11-04T19:24:41;11.95;93.60
68274;SHT30;55104;47.356;19.448;2022-11-04T19:27:43;11.98;93.42
68274;SHT30;55104;47.356;19.448;2022-11-04T19:30:56;12.04;93.12
68274;SHT30;55104;47.356;19.448;2022-11-04T19:34:00;12.13;92.72
68274;SHT30;55104;47.356;19.448;2022-11-04T19:37:05;12.14;92.67
68274;SHT30;55104;47.356;19.448;2022-11-04T19:40:08;12.13;92.72
68274;SHT30;55104;47.356;19.448;2022-11-04T19:43:11;12.08;93.04
68274;SHT30;55104;47.356;19.448;2022-11-04T19:46:14;12.08;92.93
68274;SHT30;55104;47.356;19.448;2022-11-04T19:49:18;12.11;92.83
68274;SHT30;55104;47.356;19.448;2022-11-04T19:52:20;12.15;92.63
68274;SHT30;55104;47.356;19.448;2022-11-04T19:55:23;12.13;92.82
68274;SHT30;55104;47.356;19.448;2022-11-04T19:58:25;12.05;93.05
68274;SHT30;55104;47.356;19.448;2022-11-04T20:01:27;12.04;93.09
68274;SHT30;55104;47.356;19.448;2022-11-04T20:04:30;12.01;93.25
68274;SHT30;55104;47.356;19.448;2022-11-04T20:07:32;12.01;93.09
68274;SHT30;55104;47.356;19.448;2022-11-04T20:10:37;11.99;93.25
68274;SHT30;55104;47.356;19.448;2022-11-04T20:13:40;11.97;93.45
68274;SHT30;55104;47.356;19.448;2022-11-04T20:16:45;11.98;93.34
68274;SHT30;55104;47.356;19.448;2022-11-04T20:19:47;11.95;93.47
68274;SHT30;55104;47.356;19.448;2022-11-04T20:22:53;11.98;93.25
68274;SHT30;55104;47.356;19.448;2022-11-04T20:25:55;12.04;93.37
68274;SHT30;55104;47.356;19.448;2022-11-04T20:28:57;11.99;93.27
68274;SHT30;55104;47.356;19.448;2022-11-04T20:32:00;11.99;93.49
68274;SHT30;55104;47.356;19.448;2022-11-04T20:35:02;11.94;93.65
68274;SHT30;55104;47.356;19.448;2022-11-04T20:38:05;11.94;93.69
68274;SHT30;55104;47.356;19.448;2022-11-04T20:41:11;11.94;93.64
68274;SHT30;55104;47.356;19.448;2022-11-04T20:44:19;11.99;93.47
68274;SHT30;55104;47.356;19.448;2022-11-04T20:47:23;11.98;93.61
68274;SHT30;55104;47.356;19.448;2022-11-04T20:50:25;11.93;93.79
68274;SHT30;55104;47.356;19.448;2022-11-04T20:53:28;11.95;93.88
68274;SHT30;55104;47.356;19.448;2022-11-04T20:56:32;11.94;94.00
68274;SHT30;55104;47.356;19.448;2022-11-04T20:59:35;11.93;94.05
68274;SHT30;55104;47.356;19.448;2022-11-04T21:02:38;11.97;94.07
68274;SHT30;55104;47.356;19.448;2022-11-04T21:05:42;11.93;94.16
68274;SHT30;55104;47.356;19.448;2022-11-04T21:08:47;11.94;94.34
68274;SHT30;55104;47.356;19.448;2022-11-04T21:11:50;11.93;94.30
68274;SHT30;55104;47.356;19.448;2022-11-04T21:14:52;11.91;94.39
68274;SHT30;55104;47.356;19.448;2022-11-04T21:17:54;11.97;94.36
68274;SHT30;55104;47.356;19.448;2022-11-04T21:21:03;11.91;94.56
68274;SHT30;55104;47.356;19.448;2022-11-04T21:24:08;11.86;94.95